Time;durP1;ratioP1;P1;durP2;ratioP2;P2;SDS_P1;SDS_P2;PMS_P1;PMS_P2;Temp;Humidity;BMP_temperature;BMP_pressure;BME280_temperature;BME280_humidity;BME280_pressure;Samples;Min_cycle;Max_cycle;Signal;HPM_P1;HPM_P2
2023/09/01 00:02:13;;;;;;;;;1.00;1.00;;;;;16.29;66.85;101131.41;5010667;28;8922;-66
2023/09/01 00:04:50;;;;;;;;;1.00;0.75;;;;;16.25;67.15;101135.63;5026505;28;8831;-66
2023/09/01 00:07:16;;;;;;;;;1.00;1.00;;;;;16.28;67.24;101140.56;5012809;28;8871;-67
2023/09/01 00:09:43;;;;;;;;;0.33;0.33;;;;;16.30;66.82;101150.19;5009848;28;8835;-68
2023/09/01 00:12:09;;;;;;;;;1.00;1.00;;;;;16.32;67.12;101163.53;5005601;28;8934;-67
2023/09/01 00:14:36;;;;;;;;;0.25;0.25;;;;;16.30;66.84;101154.78;5011383;28;8847;-66
2023/09/01 00:17:03;;;;;;;;;1.00;1.00;;;;;16.30;67.40;101143.91;5009933;28;9578;-66
2023/09/01 00:19:29;;;;;;;;;0.25;0.25;;;;;16.28;67.40;101149.56;4991558;28;8843;-67
2023/09/01 00:21:56;;;;;;;;;1.00;1.00;;;;;16.28;67.14;101149.56;5010888;28;8823;-67
2023/09/01 00:24:22;;;;;;;;;1.00;1.00;;;;;16.26;67.29;101148.13;5011011;28;8850;-66
2023/09/01 00:26:49;;;;;;;;;0.25;0.25;;;;;16.26;67.76;101145.41;5012525;28;9526;-66
2023/09/01 00:29:15;;;;;;;;;0.75;0.75;;;;;16.25;67.55;101151.91;5012135;28;8819;-67
2023/09/01 00:31:42;;;;;;;;;3.75;2.00;;;;;16.23;67.49;101154.84;5004747;28;8863;-67
2023/09/01 00:34:08;;;;;;;;;1.25;1.00;;;;;16.21;67.81;101162.41;5004931;28;8855;-66
2023/09/01 00:36:35;;;;;;;;;1.50;0.75;;;;;16.20;67.86;101170.75;5011571;28;8873;-67
2023/09/01 00:39:02;;;;;;;;;0.25;0.25;;;;;16.18;67.96;101167.44;5010975;28;9574;-68
2023/09/01 00:41:28;;;;;;;;;0.75;0.00;;;;;16.17;67.96;101165.78;5011243;28;8977;-68
2023/09/01 00:43:55;;;;;;;;;1.75;1.75;;;;;16.16;67.63;101164.94;5009900;28;9570;-68
2023/09/01 00:46:21;;;;;;;;;0.25;0.25;;;;;16.14;67.88;101167.06;5011271;28;8831;-68
2023/09/01 00:48:48;;;;;;;;;1.00;1.00;;;;;16.15;68.11;101168.69;5011467;28;8847;-68
2023/09/01 00:51:15;;;;;;;;;1.75;1.75;;;;;16.15;68.46;101157.00;5011178;28;8865;-68
2023/09/01 00:53:41;;;;;;;;;0.50;0.50;;;;;16.14;68.60;101156.19;5010009;28;8862;-68
2023/09/01 00:56:09;;;;;;;;;1.00;0.75;;;;;16.13;68.44;101151.81;5009527;28;8832;-68
2023/09/01 00:58:36;;;;;;;;;2.67;1.33;;;;;16.13;68.62;101154.53;5011260;28;8823;-68
2023/09/01 01:01:04;;;;;;;;;1.00;1.00;;;;;16.12;68.79;101139.28;5010647;28;8936;-67
2023/09/01 01:03:33;;;;;;;;;1.25;1.25;;;;;16.13;68.52;101142.84;5004372;28;8847;-67
2023/09/01 01:06:13;;;;;;;;;0.50;0.50;;;;;16.14;68.40;101147.22;5010912;28;8850;-67
2023/09/01 01:09:00;;;;;;;;;1.00;1.00;;;;;16.13;68.37;101143.66;5010280;28;8855;-68
2023/09/01 01:11:39;;;;;;;;;0.00;0.00;;;;;16.12;68.49;101141.97;4989948;28;9646;-68
2023/09/01 01:14:13;;;;;;;;;1.00;1.00;;;;;16.13;68.41;101148.28;5026889;28;8851;-68
2023/09/01 01:16:40;;;;;;;;;2.00;1.00;;;;;16.13;68.47;101146.38;5009192;28;8920;-68
2023/09/01 01:19:48;;;;;;;;;0.75;0.75;;;;;16.15;68.69;101140.72;5011357;28;8843;-68
2023/09/01 01:22:19;;;;;;;;;1.00;1.00;;;;;16.15;68.68;101141.53;4992921;28;8823;-68
2023/09/01 01:24:46;;;;;;;;;0.75;0.50;;;;;16.15;68.40;101132.56;4991032;28;9023;-68
2023/09/01 01:27:16;;;;;;;;;1.25;1.25;;;;;16.11;68.78;101136.78;4991765;28;8882;-68
2023/09/01 01:29:43;;;;;;;;;1.00;1.00;;;;;16.11;68.81;101140.34;5005297;28;8843;-68
2023/09/01 01:32:10;;;;;;;;;1.00;1.00;;;;;16.13;68.91;101140.97;5008366;28;8878;-68
2023/09/01 01:34:37;;;;;;;;;1.00;1.00;;;;;16.13;68.87;101138.25;5009962;28;8943;-68
2023/09/01 01:37:27;;;;;;;;;1.25;0.75;;;;;16.13;69.02;101135.53;5010188;28;9581;-68
2023/09/01 01:39:57;;;;;;;;;0.50;0.50;;;;;16.14;68.81;101131.75;5009698;28;8847;-68
2023/09/01 01:42:28;;;;;;;;;2.00;2.00;;;;;16.14;68.97;101129.03;5007734;28;8961;-68
2023/09/01 01:44:58;;;;;;;;;1.25;1.25;;;;;16.13;69.23;101134.69;5007749;28;8839;-68
2023/09/01 01:47:25;;;;;;;;;1.33;1.00;;;;;16.11;69.47;101134.06;5026193;28;8878;-68
2023/09/01 01:49:51;;;;;;;;;0.67;0.00;;;;;16.10;69.45;101138.69;5009182;28;8942;-68
2023/09/01 01:52:18;;;;;;;;;1.00;1.00;;;;;16.10;69.93;101132.41;5004986;28;8939;-67
2023/09/01 01:54:44;;;;;;;;;1.25;0.75;;;;;16.09;70.11;101134.31;5006479;28;8940;-67
2023/09/01 01:57:14;;;;;;;;;2.00;2.00;;;;;16.09;69.90;101131.59;4999193;28;8834;-68
2023/09/01 01:59:41;;;;;;;;;2.75;1.50;;;;;16.09;70.11;101130.75;5008028;28;8859;-67
2023/09/01 02:02:08;;;;;;;;;0.75;0.75;;;;;16.09;70.56;101133.47;5021561;28;8856;-69
2023/09/01 02:04:35;;;;;;;;;2.00;2.00;;;;;16.07;70.60;101129.09;5010021;28;9653;-67
2023/09/01 02:07:05;;;;;;;;;2.00;2.00;;;;;16.08;70.60;101129.91;4991509;28;8949;-67
2023/09/01 02:09:33;;;;;;;;;2.00;2.00;;;;;16.08;70.50;101129.91;5008021;28;9035;-68
2023/09/01 02:11:59;;;;;;;;;1.33;1.33;;;;;16.08;71.42;101124.47;4990249;28;9667;-68
2023/09/01 02:14:26;;;;;;;;;2.67;2.67;;;;;16.09;71.29;101126.16;5023964;28;8948;-68
2023/09/01 02:16:52;;;;;;;;;2.50;2.00;;;;;16.09;71.32;101130.75;5008670;28;9004;-68
2023/09/01 02:19:19;;;;;;;;;3.67;3.33;;;;;16.09;71.90;101133.47;5007904;28;8874;-67
2023/09/01 02:21:45;;;;;;;;;2.00;2.00;;;;;16.09;71.82;101133.47;5006425;28;8925;-68
2023/09/01 02:24:12;;;;;;;;;4.33;2.00;;;;;16.11;71.93;101134.06;5007042;28;8915;-68
2023/09/01 02:26:40;;;;;;;;;3.67;3.67;;;;;16.12;72.31;101135.72;5006824;28;9002;-68
2023/09/01 02:29:06;;;;;;;;;2.00;2.00;;;;;16.11;72.00;101136.78;5005206;28;9020;-68
2023/09/01 02:31:34;;;;;;;;;6.00;6.00;;;;;16.09;72.15;101134.31;5006476;28;9078;-69
2023/09/01 02:34:01;;;;;;;;;3.00;3.00;;;;;16.09;72.73;101131.59;5006337;28;9170;-68
2023/09/01 02:36:30;;;;;;;;;2.75;2.75;;;;;16.08;72.84;101129.91;5009780;28;9705;-68
2023/09/01 02:38:57;;;;;;;;;1.00;1.00;;;;;16.07;72.62;101133.69;5006032;28;8839;-68
2023/09/01 02:41:25;;;;;;;;;2.00;1.33;;;;;16.06;72.83;101140.19;4990886;28;9083;-68
2023/09/01 02:43:52;;;;;;;;;4.33;3.00;;;;;16.04;72.99;101139.56;5009899;28;9004;-68
2023/09/01 02:46:20;;;;;;;;;3.00;3.00;;;;;16.02;72.71;101145.22;5008352;28;8947;-68
2023/09/01 02:48:47;;;;;;;;;3.00;3.00;;;;;16.01;73.07;101145.47;5007351;28;9101;-68
2023/09/01 02:51:17;;;;;;;;;3.00;1.00;;;;;15.99;73.26;101142.13;4973606;28;1010737;-68
2023/09/01 02:53:43;;;;;;;;;3.00;2.00;;;;;15.97;73.33;101136.91;5008361;28;8857;-69
2023/09/01 02:56:10;;;;;;;;;3.67;2.00;;;;;15.96;73.54;101143.41;5012069;28;8997;-67
2023/09/01 02:58:36;;;;;;;;;4.00;3.00;;;;;15.95;73.69;101133.59;5010289;28;9010;-68
2023/09/01 03:01:08;;;;;;;;;4.00;3.00;;;;;15.94;73.61;101136.53;5011192;28;9074;-68
2023/09/01 03:03:37;;;;;;;;;5.00;5.00;;;;;15.94;73.57;101128.38;5014246;28;9064;-68
2023/09/01 03:06:10;;;;;;;;;2.67;2.67;;;;;15.94;74.08;101141.97;5012920;28;9076;-68
2023/09/01 03:08:38;;;;;;;;;3.33;3.33;;;;;15.92;74.02;101128.63;5008502;28;8933;-68
2023/09/01 03:11:05;;;;;;;;;4.33;3.00;;;;;15.94;73.74;101128.38;5012462;28;9072;-68
2023/09/01 03:13:33;;;;;;;;;2.33;2.33;;;;;15.95;74.21;101130.03;5012026;28;8965;-68
2023/09/01 03:16:00;;;;;;;;;3.67;3.67;;;;;15.96;73.94;101128.97;4995846;28;9110;-68
2023/09/01 03:18:27;;;;;;;;;4.33;4.00;;;;;15.95;74.03;101127.31;5010049;28;9810;-68
2023/09/01 03:20:55;;;;;;;;;3.33;3.33;;;;;15.96;74.27;101124.41;5027097;28;9024;-68
2023/09/01 03:23:22;;;;;;;;;4.00;3.67;;;;;15.97;73.96;101131.50;5010233;28;9090;-67
2023/09/01 03:25:54;;;;;;;;;6.00;4.00;;;;;15.97;74.29;101134.22;5029172;28;8997;-68
2023/09/01 03:28:21;;;;;;;;;6.67;5.00;;;;;15.97;74.31;101128.78;5012517;28;9214;-68
2023/09/01 03:30:48;;;;;;;;;6.00;3.67;;;;;15.98;74.44;101130.44;5011231;28;9156;-69
2023/09/01 03:33:15;;;;;;;;;2.75;2.75;;;;;15.98;74.42;101127.72;5012043;28;9169;-69
2023/09/01 03:35:41;;;;;;;;;7.33;4.00;;;;;15.97;74.44;101123.34;5012322;28;8843;-67
2023/09/01 03:38:08;;;;;;;;;3.00;2.00;;;;;15.97;74.71;101123.34;5009923;28;9080;-68
2023/09/01 03:40:36;;;;;;;;;6.00;4.00;;;;;15.98;74.43;101116.03;5011245;28;9291;-67
2023/09/01 03:43:02;;;;;;;;;3.67;3.67;;;;;15.98;74.83;101118.75;5010550;28;10123;-67
2023/09/01 03:45:29;;;;;;;;;7.33;4.33;;;;;15.99;74.88;101112.25;5010385;28;9812;-68
2023/09/01 03:47:56;;;;;;;;;2.33;2.33;;;;;15.99;74.67;101115.78;5013517;28;9173;-66
2023/09/01 03:50:22;;;;;;;;;5.00;3.33;;;;;15.99;74.84;101112.25;5011657;28;8954;-68
2023/09/01 03:52:49;;;;;;;;;9.00;7.67;;;;;15.99;75.16;101112.25;5009085;28;8924;-67
2023/09/01 03:55:15;;;;;;;;;6.00;6.00;;;;;15.99;74.98;101115.78;5008622;28;9196;-67
2023/09/01 03:57:43;;;;;;;;;4.33;3.00;;;;;16.00;74.59;101111.19;5028250;28;9147;-67
2023/09/01 04:00:11;;;;;;;;;6.67;5.33;;;;;16.01;75.00;101121.00;5010879;28;9233;-66
2023/09/01 04:02:41;;;;;;;;;5.00;5.00;;;;;16.01;75.06;101115.59;5009169;28;9013;-67
2023/09/01 04:05:08;;;;;;;;;3.67;3.67;;;;;16.01;74.79;101112.88;5011782;28;9083;-67
2023/09/01 04:07:34;;;;;;;;;2.67;2.67;;;;;16.01;74.94;101096.59;4994634;28;9097;-66
2023/09/01 04:10:04;;;;;;;;;2.00;2.00;;;;;16.00;75.04;101106.63;4988149;28;9012;-67
2023/09/01 04:12:34;;;;;;;;;8.67;7.00;;;;;16.00;75.04;101097.59;5010860;28;8839;-67
2023/09/01 04:15:00;;;;;;;;;4.33;4.00;;;;;16.00;75.05;101105.75;5011673;28;9020;-67
2023/09/01 04:17:27;;;;;;;;;4.00;4.00;;;;;15.98;75.08;101106.00;5012788;28;8966;-67
2023/09/01 04:19:54;;;;;;;;;7.33;6.00;;;;;15.98;75.28;101114.13;5007829;28;9913;-68
2023/09/01 04:22:20;;;;;;;;;5.33;5.33;;;;;15.97;75.17;101103.50;5027238;28;9300;-67
2023/09/01 04:24:47;;;;;;;;;3.67;3.67;;;;;15.98;75.09;101110.59;5003526;28;9008;-67
2023/09/01 04:27:13;;;;;;;;;2.67;2.00;;;;;15.99;75.35;101104.09;5011398;28;9953;-67
2023/09/01 04:29:41;;;;;;;;;2.33;2.33;;;;;15.99;75.30;101104.09;4992289;28;9029;-68
2023/09/01 04:32:22;;;;;;;;;6.00;6.00;;;;;15.97;75.27;101103.50;5017805;28;9174;-67
2023/09/01 04:34:49;;;;;;;;;6.33;5.00;;;;;15.98;75.49;101110.59;5010405;28;9183;-67
2023/09/01 04:37:15;;;;;;;;;6.00;5.33;;;;;15.97;75.30;101115.19;5011226;28;9079;-68
2023/09/01 04:39:42;;;;;;;;;3.33;3.33;;;;;15.98;75.55;101114.13;5005499;28;9717;-68
2023/09/01 04:42:09;;;;;;;;;4.33;4.00;;;;;15.99;75.23;101114.97;5006140;28;9009;-67
2023/09/01 04:44:35;;;;;;;;;7.00;6.33;;;;;15.99;75.23;101114.97;5027504;28;8928;-67
2023/09/01 04:47:03;;;;;;;;;5.00;5.00;;;;;15.98;75.26;101113.31;5010882;28;9860;-67
2023/09/01 04:49:30;;;;;;;;;2.67;2.67;;;;;15.98;75.14;101119.56;5008737;28;9241;-67
2023/09/01 04:51:57;;;;;;;;;3.00;3.00;;;;;15.98;75.51;101116.03;5047483;22;9146;-69
2023/09/01 04:54:24;;;;;;;;;4.00;4.00;;;;;15.98;75.79;101124.16;5033006;28;9049;-69
2023/09/01 04:56:52;;;;;;;;;4.33;4.33;;;;;15.96;75.83;101123.53;5018924;28;9020;-69
2023/09/01 04:59:18;;;;;;;;;7.67;7.67;;;;;15.94;75.79;101128.38;5024327;28;9243;-69
2023/09/01 05:01:46;;;;;;;;;6.00;5.33;;;;;15.91;75.66;101124.22;5029540;28;9169;-69
2023/09/01 05:04:14;;;;;;;;;4.00;3.67;;;;;15.90;75.77;101129.88;5023254;28;8928;-69
2023/09/01 05:06:41;;;;;;;;;5.00;5.00;;;;;15.89;76.04;101130.94;5009797;28;9217;-69
2023/09/01 05:09:07;;;;;;;;;5.33;5.33;;;;;15.88;76.22;101130.13;5012175;28;9888;-68
2023/09/01 05:11:34;;;;;;;;;6.00;6.00;;;;;15.87;76.52;101138.47;5004942;28;9163;-69
2023/09/01 05:14:00;;;;;;;;;7.33;6.00;;;;;15.86;76.83;101132.22;5011716;28;9193;-68
2023/09/01 05:16:27;;;;;;;;;9.00;7.00;;;;;15.87;76.49;101133.03;5012225;28;9015;-68
2023/09/01 05:18:55;;;;;;;;;6.00;6.00;;;;;15.86;76.99;101137.63;4991184;28;9175;-69
2023/09/01 05:21:21;;;;;;;;;7.33;6.33;;;;;15.87;76.54;101141.19;5009870;28;9063;-69
2023/09/01 05:23:49;;;;;;;;;6.33;6.33;;;;;15.85;76.66;101137.88;5004036;28;9315;-69
2023/09/01 05:26:16;;;;;;;;;6.00;3.67;;;;;15.85;77.06;101135.16;5005904;28;9273;-69
2023/09/01 05:28:42;;;;;;;;;8.00;7.00;;;;;15.85;77.05;101135.16;5010770;28;9203;-68
2023/09/01 05:31:09;;;;;;;;;9.33;6.33;;;;;15.83;77.27;101127.22;5020319;28;10507;-69
2023/09/01 05:33:40;;;;;;;;;6.67;6.67;;;;;15.81;77.21;101127.44;5002982;28;9274;-69
2023/09/01 05:36:07;;;;;;;;;2.67;2.67;;;;;15.79;77.40;101121.41;5001875;28;9181;-68
2023/09/01 05:38:33;;;;;;;;;5.33;5.33;;;;;15.79;77.42;101126.00;5009931;28;9084;-69
2023/09/01 05:41:02;;;;;;;;;5.00;5.00;;;;;15.80;77.37;101128.50;4993675;28;9071;-69
2023/09/01 05:43:29;;;;;;;;;7.00;6.00;;;;;15.78;77.69;101119.75;5008703;28;9340;-69
2023/09/01 05:45:55;;;;;;;;;11.33;8.33;;;;;15.78;77.55;101122.47;5009802;28;9114;-69
2023/09/01 05:48:25;;;;;;;;;9.00;8.67;;;;;15.76;78.09;101124.56;4991570;28;9153;-69
2023/09/01 05:50:52;;;;;;;;;8.33;7.00;;;;;15.79;77.82;101120.56;4997167;28;9263;-69
2023/09/01 05:53:19;;;;;;;;;6.00;5.00;;;;;15.79;77.85;101129.53;4990162;28;9243;-69
2023/09/01 05:55:46;;;;;;;;;3.00;3.00;;;;;15.80;78.12;101128.50;4990719;28;9071;-69
2023/09/01 05:58:12;;;;;;;;;10.33;9.67;;;;;15.81;77.57;101129.34;5003634;28;9080;-69
2023/09/01 06:00:40;;;;;;;;;9.33;8.00;;;;;15.78;77.62;101127.88;5006579;28;9076;-71
2023/09/01 06:03:06;;;;;;;;;6.67;6.67;;;;;15.78;77.89;101129.78;5005725;28;9304;-70
2023/09/01 06:05:33;;;;;;;;;5.67;5.33;;;;;15.73;77.94;101133.16;4991315;28;9055;-70
2023/09/01 06:07:59;;;;;;;;;5.00;5.00;;;;;15.74;78.08;101132.09;4991431;28;9071;-69
2023/09/01 06:10:26;;;;;;;;;10.00;9.00;;;;;15.75;77.85;101133.75;4991963;28;9097;-69
2023/09/01 06:12:53;;;;;;;;;8.00;8.00;;;;;15.75;78.07;101141.88;5008067;28;9094;-69
2023/09/01 06:15:20;;;;;;;;;5.33;5.33;;;;;15.72;77.52;101142.34;5000925;28;9068;-68
2023/09/01 06:17:46;;;;;;;;;10.00;7.33;;;;;15.66;77.95;101137.78;5005520;28;9015;-69
2023/09/01 06:20:13;;;;;;;;;7.67;7.00;;;;;15.66;78.24;101145.94;5009475;28;9082;-69
2023/09/01 06:22:45;;;;;;;;;10.00;6.00;;;;;15.70;77.84;101151.75;5009852;28;9167;-69
2023/09/01 06:25:11;;;;;;;;;11.33;10.33;;;;;15.66;77.52;101158.69;5028600;28;9247;-68
2023/09/01 06:27:38;;;;;;;;;8.33;8.33;;;;;15.64;77.43;101161.59;5007566;28;9304;-69
2023/09/01 06:30:06;;;;;;;;;5.67;5.00;;;;;15.68;77.61;101159.31;5004484;28;9090;-69
2023/09/01 06:32:33;;;;;;;;;6.33;6.33;;;;;15.71;77.64;101159.66;5008454;28;9115;-69
2023/09/01 06:34:59;;;;;;;;;4.67;4.00;;;;;15.73;77.62;101163.00;5009645;28;9020;-69
2023/09/01 06:37:26;;;;;;;;;6.00;6.00;;;;;15.76;77.79;101162.56;5009210;28;8987;-69
2023/09/01 06:39:52;;;;;;;;;4.00;4.00;;;;;15.78;77.30;101157.75;5002658;28;9200;-68
2023/09/01 06:42:19;;;;;;;;;7.00;7.00;;;;;15.71;77.62;101151.53;4996719;28;8924;-69
2023/09/01 06:44:46;;;;;;;;;9.00;9.00;;;;;15.66;77.91;101161.41;5007249;28;9099;-69
2023/09/01 06:47:12;;;;;;;;;11.67;11.00;;;;;15.62;77.86;101168.28;5000159;28;9240;-68
2023/09/01 06:49:38;;;;;;;;;15.33;11.33;;;;;15.64;78.07;101161.59;5001825;28;9160;-69
2023/09/01 06:52:05;;;;;;;;;7.00;7.00;;;;;15.69;77.88;101171.81;5013565;28;9214;-69
2023/09/01 06:54:31;;;;;;;;;5.67;5.00;;;;;15.72;78.25;101166.78;5001891;28;9085;-69
2023/09/01 06:56:58;;;;;;;;;8.33;7.33;;;;;15.74;77.52;101164.66;5000111;28;9147;-69
2023/09/01 06:59:25;;;;;;;;;8.00;6.00;;;;;15.70;77.78;101160.72;5002242;28;9248;-69
2023/09/01 07:01:51;;;;;;;;;8.33;3.00;;;;;15.74;78.08;101167.38;5009492;28;9160;-69
2023/09/01 07:04:17;;;;;;;;;4.67;4.67;;;;;15.80;77.83;101162.97;5007747;28;8920;-69
2023/09/01 07:06:44;;;;;;;;;5.67;5.33;;;;;15.82;77.56;101161.69;5005189;28;9104;-69
2023/09/01 07:09:11;;;;;;;;;5.67;5.67;;;;;15.87;77.45;101160.19;5009468;28;9041;-69
2023/09/01 07:11:37;;;;;;;;;6.33;6.33;;;;;15.85;77.98;101160.41;5007441;28;8980;-69
2023/09/01 07:14:04;;;;;;;;;8.67;7.33;;;;;15.87;77.77;101157.47;5008932;28;9067;-69
2023/09/01 07:16:30;;;;;;;;;7.00;7.00;;;;;15.88;77.48;101151.84;4996533;28;9159;-70
2023/09/01 07:18:56;;;;;;;;;3.00;3.00;;;;;15.91;77.24;101148.66;5003250;28;9030;-70
2023/09/01 07:21:23;;;;;;;;;8.67;5.67;;;;;15.93;77.58;101149.28;5003092;28;8994;-69
2023/09/01 07:23:49;;;;;;;;;6.67;6.67;;;;;15.93;77.62;101149.28;5000971;28;8934;-69
2023/09/01 07:26:16;;;;;;;;;6.00;5.00;;;;;15.96;77.69;101145.28;5017860;28;9246;-69
2023/09/01 07:28:43;;;;;;;;;4.00;4.00;;;;;15.96;77.67;101154.28;5007880;28;9325;-70
2023/09/01 07:31:13;;;;;;;;;3.67;3.67;;;;;15.99;77.37;101155.69;4994951;28;9042;-68
2023/09/01 07:33:41;;;;;;;;;4.00;3.00;;;;;15.97;76.92;101161.34;4996089;28;9144;-68
2023/09/01 07:36:12;;;;;;;;;5.33;5.33;;;;;15.91;77.53;101161.41;5008920;28;8984;-68
2023/09/01 07:38:38;;;;;;;;;6.33;5.00;;;;;15.91;77.82;101154.09;5003796;28;9797;-68
2023/09/01 07:41:05;;;;;;;;;5.33;4.00;;;;;15.93;77.89;101153.88;5007936;28;8972;-68
2023/09/01 07:43:32;;;;;;;;;4.25;4.25;;;;;15.96;77.78;101154.28;4994744;28;8965;-68
2023/09/01 07:45:58;;;;;;;;;7.00;5.33;;;;;15.97;77.91;101150.50;5004738;28;9651;-68
2023/09/01 07:48:25;;;;;;;;;7.33;6.00;;;;;15.98;77.54;101156.75;5003731;28;9030;-69
2023/09/01 07:50:52;;;;;;;;;5.00;5.00;;;;;15.98;77.64;101151.31;5000556;28;9014;-69
2023/09/01 07:53:19;;;;;;;;;8.33;5.67;;;;;16.01;77.58;101156.31;5015667;28;8982;-68
2023/09/01 07:55:45;;;;;;;;;9.25;5.00;;;;;15.98;78.11;101156.75;5005598;28;9045;-70
2023/09/01 07:58:12;;;;;;;;;7.00;5.67;;;;;15.99;77.96;101155.69;5003847;28;8897;-69
2023/09/01 08:00:40;;;;;;;;;8.67;8.67;;;;;15.96;77.93;101162.41;4997228;28;9001;-68
2023/09/01 08:03:10;;;;;;;;;6.67;6.67;;;;;15.87;78.42;101155.59;5006968;28;9064;-68
2023/09/01 08:05:38;;;;;;;;;6.00;5.00;;;;;15.89;78.74;101163.53;5004155;28;9868;-68
2023/09/01 08:08:05;;;;;;;;;7.67;7.00;;;;;15.93;78.47;101154.72;5006825;28;9263;-68
2023/09/01 08:10:32;;;;;;;;;7.33;7.00;;;;;15.94;78.87;101156.38;5002171;28;9012;-68
2023/09/01 08:12:58;;;;;;;;;7.00;7.00;;;;;15.98;78.68;101163.00;4999213;28;8927;-68
2023/09/01 08:15:25;;;;;;;;;9.00;8.00;;;;;15.96;78.37;101158.84;5005109;28;9185;-67
2023/09/01 08:17:52;;;;;;;;;11.00;10.00;;;;;15.94;79.02;101166.41;5003163;28;9155;-67
2023/09/01 08:20:19;;;;;;;;;7.00;7.00;;;;;15.97;79.36;101169.50;5011099;28;9237;-68
2023/09/01 08:22:46;;;;;;;;;8.67;8.67;;;;;16.04;78.78;101169.44;5012547;28;9004;-68
2023/09/01 08:25:13;;;;;;;;;6.33;6.33;;;;;16.10;78.41;101171.25;5012641;28;9000;-68
2023/09/01 08:27:39;;;;;;;;;7.67;6.67;;;;;16.16;78.19;101170.34;5011177;28;9127;-68
2023/09/01 08:30:07;;;;;;;;;8.33;6.00;;;;;16.18;78.30;101164.72;5010863;28;9039;-69
2023/09/01 08:32:33;;;;;;;;;9.33;8.33;;;;;16.19;78.20;101160.94;5012300;28;9138;-68
2023/09/01 08:35:03;;;;;;;;;11.00;10.33;;;;;16.13;78.21;101159.97;5012385;28;9277;-68
2023/09/01 08:37:30;;;;;;;;;9.00;9.00;;;;;16.11;78.79;101151.19;5012449;28;8997;-68
2023/09/01 08:39:56;;;;;;;;;8.33;8.33;;;;;16.11;78.58;101155.81;5011902;28;9007;-69
2023/09/01 08:42:25;;;;;;;;;7.67;7.00;;;;;16.14;78.78;101156.19;5012444;28;8987;-68
2023/09/01 08:44:52;;;;;;;;;7.00;7.00;;;;;16.18;78.25;101156.56;5010755;28;9801;-68
2023/09/01 08:47:22;;;;;;;;;9.33;9.33;;;;;16.14;78.43;101167.06;5010864;28;9016;-68
2023/09/01 08:49:50;;;;;;;;;8.00;7.33;;;;;16.09;78.65;101164.19;5011557;28;9169;-68
2023/09/01 08:52:20;;;;;;;;;6.33;6.33;;;;;16.16;78.65;101162.22;5012441;28;8998;-69
2023/09/01 08:54:47;;;;;;;;;4.00;2.00;;;;;16.22;78.41;101172.19;5003685;28;8994;-68
2023/09/01 08:57:14;;;;;;;;;7.00;7.00;;;;;16.29;78.01;101164.81;5011939;28;9018;-69
2023/09/01 08:59:42;;;;;;;;;8.00;6.33;;;;;16.35;77.98;101182.09;5005068;28;9043;-70
2023/09/01 09:02:09;;;;;;;;;6.00;4.67;;;;;16.36;78.11;101183.75;5006579;28;9168;-69
2023/09/01 09:04:36;;;;;;;;;15.00;13.33;;;;;16.33;77.71;101192.38;5003654;28;8929;-69
2023/09/01 09:07:17;;;;;;;;;11.00;9.67;;;;;16.29;78.27;101199.31;5005482;28;9081;-67
2023/09/01 09:09:57;;;;;;;;;9.00;9.00;;;;;16.25;78.12;101198.09;5007925;28;9023;-67
2023/09/01 09:12:37;;;;;;;;;7.67;6.33;;;;;16.27;78.31;101194.09;5009751;28;9092;-67
2023/09/01 09:15:05;;;;;;;;;5.67;5.67;;;;;16.29;78.41;101202.84;5015317;28;9788;-68
2023/09/01 09:17:40;;;;;;;;;6.33;5.33;;;;;16.32;78.18;101202.38;5008187;28;9815;-68
2023/09/01 09:20:08;;;;;;;;;7.33;7.33;;;;;16.34;77.97;101202.19;5001552;28;9743;-67
2023/09/01 09:23:00;;;;;;;;;6.50;6.00;;;;;16.38;77.74;101197.13;4996505;28;8953;-68
2023/09/01 09:25:31;;;;;;;;;7.00;5.33;;;;;16.40;78.01;101189.56;5005939;28;8913;-68
2023/09/01 09:27:59;;;;;;;;;8.00;8.00;;;;;16.42;78.28;101182.03;5009850;28;9042;-67
2023/09/01 09:30:26;;;;;;;;;8.67;7.00;;;;;16.44;78.08;101182.63;5006929;28;10110;-68
2023/09/01 09:33:07;;;;;;;;;10.33;10.33;;;;;16.44;78.22;101199.78;5010201;28;9105;-67
2023/09/01 09:35:35;;;;;;;;;8.00;7.67;;;;;16.39;78.11;101204.22;5003336;28;9065;-68
2023/09/01 09:38:02;;;;;;;;;7.67;7.67;;;;;16.36;78.92;101216.34;5010275;28;9307;-68
2023/09/01 09:40:29;;;;;;;;;9.67;6.67;;;;;16.35;78.68;101205.72;5008795;28;9197;-68
2023/09/01 09:43:01;;;;;;;;;9.00;7.00;;;;;16.36;78.92;101201.94;5002891;28;9028;-68
2023/09/01 09:45:32;;;;;;;;;6.33;6.33;;;;;16.35;79.44;101203.00;5005296;28;9167;-67
2023/09/01 09:48:01;;;;;;;;;8.33;7.33;;;;;16.35;79.25;101189.41;4993756;28;9062;-70
2023/09/01 09:50:29;;;;;;;;;6.00;6.00;;;;;16.41;78.66;101200.25;4993468;28;9152;-69
2023/09/01 09:53:00;;;;;;;;;15.33;11.33;;;;;16.46;78.69;101205.00;5011279;28;9037;-68
2023/09/01 09:55:42;;;;;;;;;7.00;6.67;;;;;16.52;78.27;101210.34;5008323;28;8975;-69
2023/09/01 09:58:09;;;;;;;;;10.33;9.00;;;;;16.54;77.98;101210.13;4996057;28;8998;-68
2023/09/01 10:00:45;;;;;;;;;8.00;8.00;;;;;16.64;77.99;101215.03;5006983;28;9269;-68
2023/09/01 10:03:11;;;;;;;;;8.00;8.00;;;;;16.65;77.71;101208.53;4991387;28;9209;-69
2023/09/01 10:05:40;;;;;;;;;12.33;9.00;;;;;16.70;77.71;101206.84;4999243;28;9271;-68
2023/09/01 10:08:08;;;;;;;;;7.00;7.00;;;;;16.77;77.57;101207.63;5003030;28;8993;-70
2023/09/01 10:10:35;;;;;;;;;9.33;9.33;;;;;16.84;77.08;101212.16;5004171;28;9037;-67
2023/09/01 10:13:06;;;;;;;;;10.00;5.75;;;;;16.90;77.29;101214.78;4997961;28;8941;-68
2023/09/01 10:15:36;;;;;;;;;4.50;4.50;;;;;16.98;77.17;101216.38;5007148;28;8862;-68
2023/09/01 10:18:05;;;;;;;;;9.00;8.00;;;;;16.94;76.21;101210.56;5003228;28;9738;-68
2023/09/01 10:20:34;;;;;;;;;7.75;7.00;;;;;16.93;76.61;101208.06;5008103;28;8870;-67
2023/09/01 10:23:03;;;;;;;;;9.00;8.33;;;;;16.91;76.19;101210.19;4999104;28;8863;-68
2023/09/01 10:25:29;;;;;;;;;5.67;5.33;;;;;16.90;76.58;101209.34;5008751;28;8925;-67
2023/09/01 10:28:04;;;;;;;;;6.67;6.67;;;;;16.92;76.58;101207.22;5002966;28;8934;-68
2023/09/01 10:30:36;;;;;;;;;7.00;7.00;;;;;16.98;76.18;101216.38;4999542;28;9024;-67
2023/09/01 10:33:11;;;;;;;;;6.25;6.00;;;;;16.99;76.35;101213.44;5008096;28;8986;-69
2023/09/01 10:35:46;;;;;;;;;8.00;3.67;;;;;17.02;76.13;101217.59;5005546;28;8827;-69
2023/09/01 10:38:17;;;;;;;;;4.33;4.33;;;;;17.04;76.12;101218.19;5009990;28;9613;-69
2023/09/01 10:40:46;;;;;;;;;4.00;4.00;;;;;17.05;75.98;101211.66;4996239;28;9003;-68
2023/09/01 10:43:13;;;;;;;;;5.00;3.50;;;;;17.12;75.63;101217.03;4989874;28;8842;-69
2023/09/01 10:45:39;;;;;;;;;5.25;5.25;;;;;17.19;75.42;101224.06;5022435;28;8863;-68
2023/09/01 10:48:11;;;;;;;;;8.00;7.00;;;;;17.24;75.32;101220.66;4995727;28;8826;-69
2023/09/01 10:50:41;;;;;;;;;6.50;6.50;;;;;17.26;75.40;101224.00;5006764;28;8847;-69
2023/09/01 10:53:28;;;;;;;;;10.00;8.00;;;;;17.22;75.28;101220.06;5007380;28;8855;-68
2023/09/01 10:56:07;;;;;;;;;9.00;9.00;;;;;17.25;75.56;101227.75;5007968;28;8956;-68
2023/09/01 10:58:39;;;;;;;;;4.75;4.75;;;;;17.34;75.40;101226.41;5001645;28;8812;-69
2023/09/01 11:01:34;;;;;;;;;10.00;6.75;;;;;17.42;74.90;101228.78;4998930;28;8906;-68
2023/09/01 11:04:15;;;;;;;;;7.75;6.75;;;;;17.41;75.14;101234.44;5002837;28;8837;-70
2023/09/01 11:07:00;;;;;;;;;3.00;3.00;;;;;17.42;74.89;101242.41;5004368;28;8944;-67
2023/09/01 11:09:33;;;;;;;;;6.50;6.50;;;;;17.45;75.00;101230.22;4999063;28;8833;-68
2023/09/01 11:12:07;;;;;;;;;4.75;4.75;;;;;17.50;75.21;101238.50;4991041;28;8861;-69
2023/09/01 11:14:35;;;;;;;;;5.00;5.00;;;;;17.53;75.35;101232.59;5008863;28;8835;-69
2023/09/01 11:17:03;;;;;;;;;6.25;4.75;;;;;17.57;75.06;101235.69;5012668;28;8831;-68
2023/09/01 11:19:46;;;;;;;;;7.00;7.00;;;;;17.60;74.96;101232.53;5014537;28;8945;-69
2023/09/01 11:22:13;;;;;;;;;5.50;5.50;;;;;17.61;75.02;101236.91;5013865;28;9554;-67
2023/09/01 11:24:45;;;;;;;;;6.00;4.00;;;;;17.63;75.24;101234.78;5013821;28;8857;-69
2023/09/01 11:27:12;;;;;;;;;5.25;2.50;;;;;17.64;74.93;101239.16;5014097;28;8910;-68
2023/09/01 11:29:39;;;;;;;;;4.75;2.25;;;;;17.66;75.26;101247.91;5013431;28;8831;-68
2023/09/01 11:32:05;;;;;;;;;5.50;4.25;;;;;17.65;75.09;101249.81;5028545;28;8831;-70
2023/09/01 11:34:38;;;;;;;;;4.00;4.00;;;;;17.66;75.01;101256.94;5028521;28;8831;-70
2023/09/01 11:37:05;;;;;;;;;6.25;5.25;;;;;17.65;75.27;101251.72;5013577;28;8839;-70
2023/09/01 11:39:31;;;;;;;;;2.50;2.50;;;;;17.65;75.55;101247.09;5014002;28;8847;-69